Time;durP1;ratioP1;P1;durP2;ratioP2;P2;SDS_P1;SDS_P2;PMS_P1;PMS_P2;Temp;Humidity;BMP_temperature;BMP_pressure;BME280_temperature;BME280_humidity;BME280_pressure;Samples;Min_cycle;Max_cycle;Signal;HPM_P1;HPM_P2
2022/11/28 00:01:48;;;;;;;3.50;3.20;;;;;;;3.88;90.44;100474.13;5036922;28;20071;-70
2022/11/28 00:04:17;;;;;;;5.43;5.03;;;;;;;3.97;90.18;100485.41;5036383;28;20045;-70
2022/11/28 00:06:49;;;;;;;4.25;3.88;;;;;;;3.94;89.88;100482.78;5036256;28;20061;-70
2022/11/28 00:09:19;;;;;;;3.55;3.30;;;;;;;3.95;90.30;100484.50;5035974;28;20049;-69
2022/11/28 00:11:50;;;;;;;5.97;3.50;;;;;;;3.98;89.91;100484.59;5035857;28;20507;-70
2022/11/28 00:14:20;;;;;;;5.13;4.07;;;;;;;3.98;89.75;100481.25;5036076;28;20373;-70
2022/11/28 00:16:49;;;;;;;2.55;2.35;;;;;;;3.98;90.02;100487.13;5035775;28;20049;-70
2022/11/28 00:19:18;;;;;;;4.10;3.42;;;;;;;4.00;90.33;100484.69;5035764;28;20045;-70
2022/11/28 00:21:46;;;;;;;2.83;2.63;;;;;;;4.02;89.97;100478.03;5035642;28;20512;-70
2022/11/28 00:24:15;;;;;;;2.53;2.17;;;;;;;4.05;89.82;100478.97;5035893;28;20068;-70
2022/11/28 00:26:44;;;;;;;2.77;2.57;;;;;;;4.02;90.05;100478.88;5035602;28;20033;-70
2022/11/28 00:29:14;;;;;;;4.13;3.15;;;;;;;4.03;90.50;100470.50;5035853;28;20430;-70
2022/11/28 00:31:43;;;;;;;3.03;2.30;;;;;;;4.03;89.83;100475.53;5035512;28;20037;-70
2022/11/28 00:34:13;;;;;;;2.90;2.33;;;;;;;4.02;89.87;100473.84;5034851;28;20033;-69
2022/11/28 00:36:44;;;;;;;3.92;2.65;;;;;;;3.98;89.71;100471.97;5035477;28;20285;-70
2022/11/28 00:39:14;;;;;;;2.33;2.13;;;;;;;4.01;90.01;100469.56;5035427;28;20049;-70
2022/11/28 00:41:44;;;;;;;4.63;3.78;;;;;;;3.99;90.19;100458.56;5035349;28;20052;-70
2022/11/28 00:44:15;;;;;;;3.22;2.92;;;;;;;3.98;90.14;100463.56;5035279;28;20128;-69
2022/11/28 00:46:43;;;;;;;3.40;3.10;;;;;;;4.00;90.22;100460.28;5035235;28;20053;-69
2022/11/28 00:49:12;;;;;;;8.70;4.78;;;;;;;4.01;89.79;100458.59;5035410;28;20124;-70
2022/11/28 00:51:41;;;;;;;5.97;4.68;;;;;;;4.02;90.29;100458.69;5035055;28;20057;-69
2022/11/28 00:54:10;;;;;;;4.13;2.95;;;;;;;4.04;89.73;100462.13;5035315;28;20490;-70
2022/11/28 00:56:40;;;;;;;6.22;3.60;;;;;;;4.04;90.28;100456.19;5034970;28;20502;-70
2022/11/28 00:59:08;;;;;;;2.80;2.60;;;;;;;4.00;90.15;100450.19;5035591;28;20455;-70
2022/11/28 01:01:40;;;;;;;3.78;2.90;;;;;;;4.02;89.93;100442.66;5033972;28;20041;-69
2022/11/28 01:04:12;;;;;;;4.43;3.88;;;;;;;4.11;90.57;100445.53;5034892;28;20061;-70
2022/11/28 01:06:43;;;;;;;4.93;2.47;;;;;;;4.12;90.61;100443.88;5034881;28;20081;-69
2022/11/28 01:09:14;;;;;;;2.95;2.50;;;;;;;4.08;90.37;100433.63;5035082;28;20075;-70
2022/11/28 01:11:43;;;;;;;3.40;3.10;;;;;;;4.06;90.10;100435.25;5034691;28;20038;-70
2022/11/28 01:14:13;;;;;;;4.03;3.08;;;;;;;4.07;90.62;100431.94;5033844;28;20064;-70
2022/11/28 01:16:43;;;;;;;10.65;4.72;;;;;;;4.10;89.98;100425.28;5034596;28;20038;-69
2022/11/28 01:19:12;;;;;;;4.38;3.25;;;;;;;4.11;89.92;100425.31;5034652;28;20057;-70
2022/11/28 01:21:42;;;;;;;2.47;2.28;;;;;;;4.12;89.94;100418.59;5034571;28;20045;-69
2022/11/28 01:24:11;;;;;;;19.75;4.63;;;;;;;4.10;90.47;100425.28;5034524;28;20527;-69
2022/11/28 01:26:40;;;;;;;2.63;2.43;;;;;;;4.08;89.96;100420.16;5034758;28;20037;-69
2022/11/28 01:29:10;;;;;;;4.07;3.72;;;;;;;4.12;90.50;100418.59;5034423;28;20051;-69
2022/11/28 01:31:39;;;;;;;1.95;1.85;;;;;;;4.08;90.06;100417.63;5034600;28;20392;-69
2022/11/28 01:34:10;;;;;;;4.30;3.92;;;;;;;4.11;90.05;100427.84;5034328;28;20086;-69
2022/11/28 01:36:38;;;;;;;10.20;3.25;;;;;;;4.10;90.32;100417.69;5034514;28;20092;-69
2022/11/28 01:39:08;;;;;;;2.15;1.92;;;;;;;4.14;90.03;100417.00;5034211;28;20045;-69
2022/11/28 01:41:38;;;;;;;3.78;2.53;;;;;;;4.14;90.13;100411.94;5034384;28;20051;-69
2022/11/28 01:44:28;;;;;;;4.05;2.47;;;;;;;4.15;90.08;100408.63;5034202;28;20096;-69
2022/11/28 01:46:57;;;;;;;5.95;2.85;;;;;;;4.15;90.06;100408.63;5033715;28;20496;-69
2022/11/28 01:49:31;;;;;;;4.35;3.47;;;;;;;4.17;90.26;100401.97;5034026;28;20488;-69
2022/11/28 01:52:05;;;;;;;2.50;2.25;;;;;;;4.15;90.04;100393.47;5034018;28;20052;-69
2022/11/28 01:54:37;;;;;;;1.73;1.63;;;;;;;4.16;90.44;100395.16;5034045;28;20103;-69
2022/11/28 01:57:11;;;;;;;2.28;2.03;;;;;;;4.14;90.66;100396.78;5033812;28;20519;-69
2022/11/28 01:59:47;;;;;;;7.30;6.20;;;;;;;4.15;89.99;100378.31;5033929;28;20492;-69
2022/11/28 02:02:32;;;;;;;2.33;2.13;;;;;;;4.12;89.96;100378.19;5034044;28;20050;-69
2022/11/28 02:05:02;;;;;;;4.22;3.75;;;;;;;4.12;90.32;100370.63;5033882;28;20046;-69
2022/11/28 02:07:32;;;;;;;3.90;3.50;;;;;;;4.12;90.29;100368.97;5033792;28;20058;-69
2022/11/28 02:10:01;;;;;;;;;;;;;;;4.10;90.43;100367.19;5035027;28;20076;-69
2022/11/28 02:12:44;;;;;;;1.70;1.60;;;;;;;4.07;90.18;100361.22;5034028;28;19927;-69
2022/11/28 02:15:33;;;;;;;3.05;2.78;;;;;;;4.01;90.64;100371.09;5033717;28;20049;-69
2022/11/28 02:18:18;;;;;;;0.52;0.52;;;;;;;3.98;90.37;100365.91;5032495;28;20071;-69
2022/11/28 02:21:17;;;;;;;3.58;1.98;;;;;;;3.91;90.48;100369.03;5033929;28;20057;-69
2022/11/28 02:24:10;;;;;;;5.75;4.20;;;;;;;3.92;89.99;100363.19;5033890;28;20499;-69
2022/11/28 02:27:09;;;;;;;5.88;3.63;;;;;;;3.91;90.19;100358.94;5033503;28;20041;-69
2022/11/28 02:30:05;;;;;;;2.70;2.50;;;;;;;3.86;90.17;100350.31;5033689;28;20049;-69
2022/11/28 02:32:59;;;;;;;2.65;2.22;;;;;;;3.74;89.76;100344.81;5030770;28;20507;-69
2022/11/28 02:35:38;;;;;;;1.88;1.75;;;;;;;3.72;90.48;100336.34;5031143;28;20514;-69
2022/11/28 02:38:18;;;;;;;1.02;0.98;;;;;;;3.71;90.22;100319.50;5033459;28;20098;-69
2022/11/28 02:40:51;;;;;;;;;;;;;;;3.58;89.92;100322.34;5033877;28;20084;-69
2022/11/28 02:43:26;;;;;;;2.92;2.72;;;;;;;3.54;89.66;100319.66;5033739;28;19987;-69
2022/11/28 02:46:01;;;;;;;1.75;1.65;;;;;;;3.46;89.50;100321.03;5033719;28;20049;-69
2022/11/28 02:48:37;;;;;;;4.35;4.00;;;;;;;3.48;89.54;100325.31;5033424;28;20128;-69
2022/11/28 02:51:13;;;;;;;2.10;2.00;;;;;;;3.41;89.46;100325.91;5033659;28;20518;-69
2022/11/28 02:53:45;;;;;;;2.50;2.30;;;;;;;3.27;89.77;100316.94;5033303;28;20397;-69
2022/11/28 02:56:14;;;;;;;2.45;1.83;;;;;;;3.30;89.85;100319.59;5033050;28;20049;-69
2022/11/28 02:58:43;;;;;;;2.13;1.93;;;;;;;3.24;89.18;100314.31;5036139;28;20045;-69
2022/11/28 03:01:20;;;;;;;3.05;2.85;;;;;;;3.24;89.49;100314.31;5037806;28;20278;-69
2022/11/28 03:04:05;;;;;;;1.83;1.73;;;;;;;3.32;89.63;100315.47;5037204;28;20045;-69
2022/11/28 03:06:46;;;;;;;2.78;1.17;;;;;;;3.33;89.38;100305.47;5037354;28;20045;-69
2022/11/28 03:09:38;;;;;;;6.85;2.08;;;;;;;3.29;89.44;100302.72;5037086;28;20053;-69
2022/11/28 03:12:19;;;;;;;1.85;1.75;;;;;;;3.27;89.97;100297.66;5037317;28;20038;-69
2022/11/28 03:14:53;;;;;;;3.00;2.38;;;;;;;3.24;89.68;100304.22;5035716;28;20496;-69
2022/11/28 03:17:36;;;;;;;2.28;2.08;;;;;;;3.17;89.09;100297.22;5037214;28;20053;-69
2022/11/28 03:20:22;;;;;;;1.45;1.35;;;;;;;3.12;89.20;100291.16;5037126;28;20053;-69
2022/11/28 03:23:06;;;;;;;2.33;1.45;;;;;;;3.07;88.96;100292.66;5036862;28;20128;-69
2022/11/28 03:25:43;;;;;;;1.05;1.02;;;;;;;3.00;89.59;100290.69;5036830;28;20041;-69
2022/11/28 03:28:19;;;;;;;4.10;3.70;;;;;;;3.02;89.56;100286.56;5036801;28;20565;-69
2022/11/28 03:30:53;;;;;;;7.57;2.15;;;;;;;3.01;89.09;100279.78;5036950;28;20500;-69
2022/11/28 03:33:25;;;;;;;0.88;0.88;;;;;;;3.04;89.69;100274.88;5036499;28;20095;-69
2022/11/28 03:36:01;;;;;;;2.70;2.45;;;;;;;3.06;89.63;100268.22;5036604;28;20045;-69
2022/11/28 03:38:38;;;;;;;3.47;3.13;;;;;;;3.05;89.04;100279.97;5035366;28;20500;-69
2022/11/28 03:41:13;;;;;;;2.67;2.47;;;;;;;3.10;89.41;100275.09;5036453;28;20053;-69
2022/11/28 03:43:52;;;;;;;6.80;4.25;;;;;;;3.11;89.66;100281.88;5036794;28;20049;-69
2022/11/28 03:46:26;;;;;;;2.07;1.93;;;;;;;3.16;89.96;100275.34;5036471;28;20128;-69
2022/11/28 03:48:58;;;;;;;3.17;2.45;;;;;;;3.09;89.83;100258.25;5036412;28;20104;-69
2022/11/28 03:51:32;;;;;;;2.33;2.13;;;;;;;3.16;89.46;100271.16;5036234;28;20054;-69
2022/11/28 03:54:08;;;;;;;3.15;2.85;;;;;;;3.23;89.69;100272.25;5036212;28;20045;-69
2022/11/28 03:56:41;;;;;;;3.08;2.83;;;;;;;3.31;90.24;100275.94;5035981;28;20081;-69
2022/11/28 03:59:13;;;;;;;2.83;2.63;;;;;;;3.38;89.70;100277.88;5036159;28;20491;-69
2022/11/28 04:01:53;;;;;;;3.17;2.97;;;;;;;3.42;89.60;100269.63;5036114;28;20045;-69
2022/11/28 04:04:29;;;;;;;3.65;2.65;;;;;;;3.40;90.26;100266.19;5036378;28;20403;-69
2022/11/28 04:07:04;;;;;;;2.00;1.90;;;;;;;3.36;89.76;100269.38;5036018;28;20164;-69
2022/11/28 04:09:43;;;;;;;3.22;2.55;;;;;;;3.42;89.82;100264.56;5034687;28;20056;-69
2022/11/28 04:12:25;;;;;;;3.22;1.95;;;;;;;3.44;89.95;100268.00;5035891;28;20053;-69
2022/11/28 04:15:00;;;;;;;1.52;1.42;;;;;;;3.46;89.95;100268.03;5036128;28;20050;-69
2022/11/28 04:17:35;;;;;;;2.70;1.77;;;;;;;3.60;90.41;100269.44;5035900;28;20038;-68
2022/11/28 04:20:09;;;;;;;3.35;2.28;;;;;;;3.74;90.60;100259.00;5035845;28;20041;-69
2022/11/28 04:22:44;;;;;;;1.98;1.85;;;;;;;3.88;90.81;100267.94;5035934;28;20411;-69
2022/11/28 04:25:18;;;;;;;1.83;1.73;;;;;;;3.97;90.42;100273.31;5036033;28;20137;-69
2022/11/28 04:27:52;;;;;;;3.63;2.17;;;;;;;4.03;90.77;100267.63;5035946;28;20491;-69
2022/11/28 04:30:21;;;;;;;10.55;3.08;;;;;;;4.07;90.22;100269.44;5035591;28;20049;-69
2022/11/28 04:32:52;;;;;;;9.45;4.97;;;;;;;4.15;90.73;100277.28;5035441;28;20042;-69
2022/11/28 04:35:25;;;;;;;2.85;2.20;;;;;;;4.16;90.69;100276.47;5035441;28;20045;-69
2022/11/28 04:37:55;;;;;;;3.95;2.28;;;;;;;4.19;90.32;100271.50;5035746;28;20049;-69
2022/11/28 04:40:30;;;;;;;5.07;2.38;;;;;;;4.20;90.38;100271.56;5035448;28;20045;-69
2022/11/28 04:43:03;;;;;;;2.58;2.38;;;;;;;4.22;90.63;100269.09;5035303;28;20046;-69
2022/11/28 04:45:37;;;;;;;11.00;3.13;;;;;;;4.26;90.47;100270.91;5035302;28;20092;-69
2022/11/28 04:48:07;;;;;;;2.72;2.22;;;;;;;4.28;90.40;100274.34;5035578;28;20484;-69
2022/11/28 04:50:42;;;;;;;2.45;2.10;;;;;;;4.22;90.44;100264.91;5035173;28;20052;-69
2022/11/28 04:53:18;;;;;;;3.50;1.63;;;;;;;4.29;90.42;100265.97;5035060;28;20053;-69
2022/11/28 04:55:56;;;;;;;2.47;2.28;;;;;;;4.30;89.98;100262.63;5035129;28;20057;-69
2022/11/28 04:58:31;;;;;;;5.53;4.30;;;;;;;4.31;90.23;100264.34;5034907;28;20076;-69
2022/11/28 05:01:02;;;;;;;2.60;2.40;;;;;;;4.31;89.95;100254.25;5034988;28;20042;-69
2022/11/28 05:03:32;;;;;;;1.58;1.48;;;;;;;4.30;89.80;100252.50;5034900;28;20053;-70
2022/11/28 05:06:02;;;;;;;2.92;2.72;;;;;;;4.33;89.71;100260.19;5034888;28;20491;-70
2022/11/28 05:08:30;;;;;;;1.20;1.10;;;;;;;4.34;89.65;100254.34;5035078;28;20045;-69
2022/11/28 05:11:00;;;;;;;1.70;1.60;;;;;;;4.35;89.56;100256.91;5034783;28;20488;-69
2022/11/28 05:13:29;;;;;;;2.63;2.20;;;;;;;4.16;89.20;100224.28;5034685;28;20054;-69
2022/11/28 05:16:02;;;;;;;1.93;1.83;;;;;;;4.36;88.83;100258.66;5034995;28;20092;-69
2022/11/28 05:18:31;;;;;;;2.33;2.17;;;;;;;4.31;89.11;100256.78;5034970;28;20283;-69
2022/11/28 05:21:00;;;;;;;4.18;2.30;;;;;;;4.38;88.92;100264.63;5033444;28;20088;-70
2022/11/28 05:23:29;;;;;;;;;;;;;;;4.41;88.76;100263.84;5034892;28;20503;-70
2022/11/28 05:25:57;;;;;;;3.22;1.33;;;;;;;4.39;88.34;100265.47;5034832;28;19921;-70
2022/11/28 05:28:27;;;;;;;1.73;1.60;;;;;;;4.38;88.27;100273.84;5034459;28;20053;-69
2022/11/28 05:31:00;;;;;;;1.85;1.75;;;;;;;4.40;88.37;100270.56;5034264;28;20069;-70
2022/11/28 05:33:29;;;;;;;1.23;1.02;;;;;;;4.40;87.98;100264.66;5034628;28;20076;-70
2022/11/28 05:36:02;;;;;;;4.57;1.73;;;;;;;4.43;87.57;100264.75;5034239;28;20046;-70
2022/11/28 05:38:37;;;;;;;1.52;1.42;;;;;;;4.42;87.61;100273.13;5034327;28;20041;-70
2022/11/28 05:41:06;;;;;;;2.22;2.00;;;;;;;4.42;87.33;100273.13;5034548;28;20053;-70
2022/11/28 05:43:37;;;;;;;1.63;1.52;;;;;;;4.44;87.23;100276.59;5066477;28;20451;-70
2022/11/28 05:46:06;;;;;;;2.30;2.10;;;;;;;4.46;87.26;100280.03;5034202;28;20049;-69
2022/11/28 05:48:35;;;;;;;1.50;1.40;;;;;;;4.47;87.06;100276.69;5034075;28;20037;-70
2022/11/28 05:51:04;;;;;;;3.53;3.13;;;;;;;4.49;87.27;100277.56;5034106;28;20566;-70
2022/11/28 05:53:33;;;;;;;0.65;0.65;;;;;;;4.50;87.04;100272.59;5034208;28;20061;-69
2022/11/28 05:56:07;;;;;;;2.38;1.65;;;;;;;4.52;87.19;100262.53;5033626;28;20044;-70
2022/11/28 05:58:39;;;;;;;1.10;0.77;;;;;;;4.50;87.01;100266.69;5033966;28;20136;-70
2022/11/28 06:01:13;;;;;;;3.28;2.97;;;;;;;4.50;86.77;100259.09;5032990;28;20081;-70
2022/11/28 06:03:42;;;;;;;3.00;2.20;;;;;;;4.51;86.57;100265.88;5033874;28;20045;-70
2022/11/28 06:06:16;;;;;;;1.08;1.08;;;;;;;4.49;86.74;100259.88;5033819;28;20040;-69
2022/11/28 06:08:46;;;;;;;1.27;1.17;;;;;;;4.49;86.83;100254.84;5032566;28;20053;-70
2022/11/28 06:11:16;;;;;;;1.77;1.65;;;;;;;4.50;86.17;100256.56;5033776;28;20049;-70
2022/11/28 06:13:47;;;;;;;2.53;2.33;;;;;;;4.50;86.50;100259.09;5033502;28;20056;-70
2022/11/28 06:16:19;;;;;;;11.75;3.03;;;;;;;4.50;86.30;100266.69;5033930;28;20399;-70
2022/11/28 06:18:48;;;;;;;5.65;4.47;;;;;;;4.52;86.25;100265.06;5033906;28;20049;-70
2022/11/28 06:21:16;;;;;;;3.00;2.80;;;;;;;4.51;86.02;100264.19;5032435;28;20470;-70
2022/11/28 06:23:45;;;;;;;1.38;1.27;;;;;;;4.46;86.18;100244.66;5033555;28;20033;-70
2022/11/28 06:26:16;;;;;;;1.83;1.73;;;;;;;4.49;85.96;100244.72;5033432;28;20056;-70
2022/11/28 06:28:46;;;;;;;3.08;2.83;;;;;;;4.53;85.80;100251.63;5033571;28;20049;-69
2022/11/28 06:31:18;;;;;;;2.95;2.72;;;;;;;4.51;86.40;100243.13;5033421;28;20049;-70
2022/11/28 06:33:46;;;;;;;2.05;1.48;;;;;;;4.53;85.88;100238.97;5033060;28;20561;-70
2022/11/28 06:36:17;;;;;;;3.03;2.72;;;;;;;4.56;85.76;100247.50;5033314;28;20052;-70
2022/11/28 06:38:46;;;;;;;2.85;2.05;;;;;;;4.56;85.78;100242.44;5033633;28;20538;-70
2022/11/28 06:41:17;;;;;;;2.60;2.10;;;;;;;4.58;85.57;100245.06;5033409;28;20041;-70
2022/11/28 06:43:47;;;;;;;1.38;1.27;;;;;;;4.59;85.61;100246.75;5033832;28;20045;-70
2022/11/28 06:46:18;;;;;;;4.05;3.53;;;;;;;4.61;85.58;100240.06;5033255;28;20049;-70
2022/11/28 06:48:48;;;;;;;2.70;1.60;;;;;;;4.60;85.44;100239.22;5032390;28;20442;-70
2022/11/28 06:51:19;;;;;;;1.67;1.58;;;;;;;4.62;85.87;100239.28;5032079;28;20459;-70
2022/11/28 06:53:48;;;;;;;3.00;1.83;;;;;;;4.61;85.39;100240.06;5033336;28;20061;-69
2022/11/28 06:56:19;;;;;;;1.08;1.00;;;;;;;4.63;85.57;100235.94;5033127;28;20406;-70
2022/11/28 06:58:54;;;;;;;0.95;0.93;;;;;;;4.65;85.22;100239.38;5033206;28;20500;-70
2022/11/28 07:01:25;;;;;;;1.83;1.38;;;;;;;4.66;85.14;100239.41;5033267;28;20121;-69
2022/11/28 07:03:54;;;;;;;1.83;1.73;;;;;;;4.66;84.96;100238.53;5033463;28;20440;-70
2022/11/28 07:06:25;;;;;;;2.00;1.63;;;;;;;4.57;85.17;100213.00;5033075;28;20472;-70
2022/11/28 07:08:55;;;;;;;8.60;3.15;;;;;;;4.74;84.61;100227.00;5033300;28;20103;-70
2022/11/28 07:11:26;;;;;;;2.45;2.25;;;;;;;4.75;84.77;100229.59;5033023;28;20052;-70
2022/11/28 07:13:58;;;;;;;2.90;2.00;;;;;;;4.74;84.59;100232.06;5033345;28;20508;-70
2022/11/28 07:16:28;;;;;;;1.88;1.77;;;;;;;4.76;84.77;100225.38;5032999;28;20133;-70
2022/11/28 07:18:58;;;;;;;3.80;2.60;;;;;;;4.78;84.56;100231.34;5032118;28;20554;-70
2022/11/28 07:21:28;;;;;;;;;;;;;;;4.76;84.61;100230.44;5033793;28;20492;-70
2022/11/28 07:23:58;;;;;;;1.77;1.67;;;;;;;4.78;84.27;100223.75;5032986;28;19921;-70
2022/11/28 07:26:27;;;;;;;1.42;1.30;;;;;;;4.82;84.38;100230.66;5033043;28;20053;-70
2022/11/28 07:28:58;;;;;;;1.77;1.67;;;;;;;4.76;84.16;100210.22;5031723;28;20038;-70
2022/11/28 07:31:30;;;;;;;0.40;0.40;;;;;;;4.87;83.80;100224.03;5032899;28;20099;-69
2022/11/28 07:34:03;;;;;;;1.40;1.30;;;;;;;4.72;83.90;100193.25;5033379;28;20049;-69
2022/11/28 07:36:32;;;;;;;1.77;1.67;;;;;;;4.93;83.79;100230.97;5032937;28;20045;-69
2022/11/28 07:39:03;;;;;;;2.58;1.25;;;;;;;4.87;83.49;100208.88;5032907;28;20038;-69
2022/11/28 07:41:32;;;;;;;1.80;1.70;;;;;;;4.94;83.55;100225.97;5032782;28;20141;-69
2022/11/28 07:44:04;;;;;;;4.18;2.58;;;;;;;4.94;83.28;100225.09;5034125;28;20046;-69
2022/11/28 07:46:34;;;;;;;3.03;2.22;;;;;;;4.93;83.26;100219.19;5036374;28;20045;-69
2022/11/28 07:49:04;;;;;;;6.05;3.35;;;;;;;4.91;83.30;100225.88;5036298;28;20041;-69
2022/11/28 07:51:34;;;;;;;1.00;1.00;;;;;;;4.93;82.75;100229.28;5036352;28;20041;-69
2022/11/28 07:54:04;;;;;;;0.68;0.60;;;;;;;4.98;82.83;100227.78;5036201;28;20042;-69
2022/11/28 07:56:36;;;;;;;2.88;1.95;;;;;;;5.00;82.80;100225.28;5035871;28;20053;-69
2022/11/28 07:59:26;;;;;;;2.78;1.42;;;;;;;4.99;82.96;100221.88;5036155;28;20038;-69
2022/11/28 08:01:54;;;;;;;1.25;1.17;;;;;;;5.01;82.31;100220.28;5035907;28;20037;-69
2022/11/28 08:04:23;;;;;;;1.70;1.40;;;;;;;5.01;82.67;100220.28;5036090;28;20091;-69
2022/11/28 08:06:52;;;;;;;2.00;1.85;;;;;;;5.02;82.70;100228.69;5036285;28;20155;-69
2022/11/28 08:09:21;;;;;;;3.03;2.37;;;;;;;5.04;82.55;100222.88;5035895;28;20071;-69
2022/11/28 08:11:51;;;;;;;0.95;0.93;;;;;;;5.06;82.61;100220.41;5035088;28;20112;-69
2022/11/28 08:14:20;;;;;;;1.95;1.63;;;;;;;5.07;82.42;100219.59;5044860;28;20071;-69
2022/11/28 08:16:51;;;;;;;0.70;0.70;;;;;;;5.06;82.28;100221.25;5055755;28;20445;-69
2022/11/28 08:19:19;;;;;;;1.73;1.63;;;;;;;5.04;82.02;100222.88;5055332;28;20045;-67
2022/11/28 08:21:52;;;;;;;1.67;1.58;;;;;;;5.02;81.58;100219.44;5056034;28;20076;-69
2022/11/28 08:24:21;;;;;;;7.35;2.25;;;;;;;5.06;81.31;100213.66;5054613;28;20048;-70
2022/11/28 08:26:50;;;;;;;1.08;0.98;;;;;;;5.09;80.83;100216.28;5055618;28;20045;-70
2022/11/28 08:29:18;;;;;;;3.25;2.95;;;;;;;5.04;80.90;100212.75;5055461;28;20036;-71
2022/11/28 08:31:47;;;;;;;1.92;1.77;;;;;;;5.13;81.04;100222.31;5055756;28;20110;-68
2022/11/28 08:34:17;;;;;;;0.40;0.40;;;;;;;5.12;80.67;100221.44;5055288;28;20040;-70
2022/11/28 08:36:47;;;;;;;0.95;0.95;;;;;;;5.13;81.23;100225.72;5055218;28;20045;-70
2022/11/28 08:39:16;;;;;;;2.92;2.70;;;;;;;5.13;80.90;100224.84;5055650;28;20148;-71
2022/11/28 08:41:55;;;;;;;1.88;1.20;;;;;;;5.15;80.89;100231.66;5052129;28;20063;-70
2022/11/28 08:44:25;;;;;;;1.38;1.27;;;;;;;5.17;80.56;100235.09;5055396;28;20625;-69
2022/11/28 08:46:54;;;;;;;3.53;3.20;;;;;;;5.16;80.86;100223.25;5055064;28;20041;-70
2022/11/28 08:49:24;;;;;;;6.23;1.47;;;;;;;5.20;80.59;100235.19;5055195;28;20053;-70
2022/11/28 08:51:53;;;;;;;2.42;2.05;;;;;;;5.18;80.21;100221.59;5055026;28;20053;-70
2022/11/28 08:54:21;;;;;;;1.10;1.02;;;;;;;5.04;80.37;100201.81;5055211;28;20390;-70
2022/11/28 08:56:50;;;;;;;0.60;0.60;;;;;;;5.21;80.53;100231.81;5053897;28;20041;-69
2022/11/28 08:59:19;;;;;;;1.35;1.08;;;;;;;5.06;80.59;100203.53;5054894;28;20045;-70
2022/11/28 09:01:48;;;;;;;2.33;2.13;;;;;;;5.19;80.18;100228.41;5054940;28;20045;-70
2022/11/28 09:04:17;;;;;;;0.98;0.68;;;;;;;5.07;79.91;100201.88;5054782;28;20045;-70
2022/11/28 09:06:47;;;;;;;2.28;1.67;;;;;;;5.25;79.89;100226.06;5054756;28;20479;-70
2022/11/28 09:09:16;;;;;;;1.45;1.35;;;;;;;5.29;79.62;100217.75;5054703;28;20110;-70
2022/11/28 09:11:45;;;;;;;4.60;2.58;;;;;;;5.30;80.08;100216.91;5055278;28;20487;-70
2022/11/28 09:14:14;;;;;;;;;;;;;;;5.30;80.09;100218.59;5048462;28;20059;-70
2022/11/28 09:16:42;;;;;;;1.40;1.30;;;;;;;5.30;80.33;100206.78;5040586;28;19928;-70
2022/11/28 09:19:11;;;;;;;4.07;3.72;;;;;;;5.34;80.37;100208.59;5048095;28;20046;-70
2022/11/28 09:21:40;;;;;;;0.70;0.70;;;;;;;5.31;80.12;100203.44;5042251;28;20037;-70
2022/11/28 09:24:12;;;;;;;0.80;0.80;;;;;;;5.33;79.76;100204.34;5034867;28;20057;-70
2022/11/28 09:26:42;;;;;;;4.13;2.15;;;;;;;5.33;79.74;100206.88;5034467;28;20073;-70
2022/11/28 09:29:11;;;;;;;1.05;1.05;;;;;;;5.32;79.61;100194.19;5033483;28;20045;-70
2022/11/28 09:31:39;;;;;;;1.15;1.10;;;;;;;5.38;79.56;100202.81;5034368;28;20133;-70
2022/11/28 09:34:14;;;;;;;1.23;1.13;;;;;;;5.41;79.51;100210.50;5034309;28;20443;-73
2022/11/28 09:36:43;;;;;;;3.42;2.53;;;;;;;5.45;79.31;100197.94;5051009;28;20480;-70
2022/11/28 09:39:13;;;;;;;1.58;1.15;;;;;;;5.42;79.23;100181.00;5046396;28;20071;-70
2022/11/28 09:41:56;;;;;;;1.33;1.23;;;;;;;5.53;78.65;100188.84;5034185;28;20042;-71
2022/11/28 09:44:33;;;;;;;1.27;1.17;;;;;;;5.60;78.08;100190.75;5053508;28;20090;-70
2022/11/28 09:47:06;;;;;;;0.77;0.77;;;;;;;5.66;76.93;100186.72;5054237;28;20102;-70
2022/11/28 09:49:42;;;;;;;1.67;1.58;;;;;;;5.75;76.97;100181.03;5054355;28;20415;-70
2022/11/28 09:52:24;;;;;;;0.52;0.52;;;;;;;5.77;77.06;100175.19;5053888;28;20051;-70
2022/11/28 09:55:05;;;;;;;1.08;1.00;;;;;;;5.77;77.52;100179.38;5053949;28;20049;-70
2022/11/28 09:57:39;;;;;;;0.60;0.60;;;;;;;5.75;76.52;100170.91;5053582;28;20063;-70
2022/11/28 10:00:17;;;;;;;0.85;0.85;;;;;;;5.77;76.25;100169.25;5054119;28;20514;-70
2022/11/28 10:03:12;;;;;;;1.27;1.15;;;;;;;5.73;76.12;100162.41;5053764;28;20552;-70
2022/11/28 10:05:47;;;;;;;2.17;1.60;;;;;;;5.73;76.40;100158.22;5049303;28;20048;-71
2022/11/28 10:08:27;;;;;;;0.30;0.30;;;;;;;5.62;76.36;100152.00;5053670;28;20049;-70
2022/11/28 10:11:03;;;;;;;0.93;0.82;;;;;;;5.62;76.57;100164.66;5053753;28;20049;-71
2022/11/28 10:13:47;;;;;;;1.35;1.25;;;;;;;5.57;76.66;100160.28;5053939;28;20063;-71
2022/11/28 10:16:48;;;;;;;1.00;1.00;;;;;;;5.60;76.89;100168.81;5042236;28;20042;-70
2022/11/28 10:19:25;;;;;;;1.48;1.38;;;;;;;5.55;77.41;100151.78;5033669;28;20407;-70
2022/11/28 10:22:19;;;;;;;0.80;0.80;;;;;;;5.58;77.03;100156.94;5033487;28;20037;-69
2022/11/28 10:24:53;;;;;;;1.92;1.77;;;;;;;5.49;77.53;100157.56;5033625;28;20103;-70
2022/11/28 10:27:32;;;;;;;0.45;0.45;;;;;;;5.47;77.22;100155.81;5034138;28;20073;-70
2022/11/28 10:30:04;;;;;;;0.65;0.65;;;;;;;5.45;77.64;100158.28;5038416;28;20069;-70
2022/11/28 10:32:39;;;;;;;7.63;1.88;;;;;;;5.47;77.36;100163.38;5052819;28;20060;-70
2022/11/28 10:35:21;;;;;;;4.40;2.17;;;;;;;5.48;77.63;100149.91;5053093;28;20047;-70
2022/11/28 10:37:55;;;;;;;2.03;1.85;;;;;;;5.48;77.46;100139.78;5046424;28;20049;-71
2022/11/28 10:40:31;;;;;;;0.73;0.73;;;;;;;5.55;77.10;100126.47;5052224;28;20051;-70
2022/11/28 10:43:05;;;;;;;1.23;1.13;;;;;;;5.63;77.05;100140.19;5051307;28;20067;-71
2022/11/28 10:45:42;;;;;;;0.47;0.47;;;;;;;5.66;77.36;100145.34;5033572;28;20041;-71
2022/11/28 10:48:37;;;;;;;2.08;1.70;;;;;;;5.62;76.98;100138.47;5033339;28;20046;-71
2022/11/28 10:51:25;;;;;;;0.70;0.70;;;;;;;5.61;76.77;100129.16;5037928;28;20040;-71
2022/11/28 10:54:09;;;;;;;1.55;1.45;;;;;;;5.55;77.00;100127.31;5051685;28;20049;-71
2022/11/28 10:56:46;;;;;;;1.55;1.15;;;;;;;5.47;76.79;100138.91;5041673;28;20418;-71
2022/11/28 10:59:27;;;;;;;4.72;2.22;;;;;;;5.45;76.90;100134.66;5045580;28;20060;-71
2022/11/28 11:01:57;;;;;;;1.73;1.63;;;;;;;5.42;76.81;100136.25;5052994;28;20140;-71
2022/11/28 11:04:27;;;;;;;1.50;1.40;;;;;;;5.46;77.10;100133.81;5053127;28;20056;-71
2022/11/28 11:07:03;;;;;;;3.80;3.50;;;;;;;5.47;77.63;100122.91;5051587;28;20053;-71
2022/11/28 11:09:43;;;;;;;3.00;1.95;;;;;;;5.44;78.20;100113.53;5032973;28;20128;-71
2022/11/28 11:12:18;;;;;;;2.45;1.50;;;;;;;5.47;77.61;100117.84;5033443;28;20492;-71
2022/11/28 11:14:48;;;;;;;2.38;2.08;;;;;;;5.46;77.74;100116.09;5033059;28;20045;-71
2022/11/28 11:17:32;;;;;;;3.92;2.90;;;;;;;5.51;77.92;100120.47;5033036;28;20492;-71
2022/11/28 11:20:34;;;;;;;7.03;2.63;;;;;;;5.42;77.59;100110.94;5036464;28;20049;-71
2022/11/28 11:23:16;;;;;;;1.17;1.08;;;;;;;5.48;77.75;100112.78;5034906;28;20041;-71
2022/11/28 11:25:51;;;;;;;3.47;2.67;;;;;;;5.47;78.17;100103.47;5036832;28;20038;-71
2022/11/28 11:28:32;;;;;;;4.50;1.90;;;;;;;5.50;78.01;100112.81;5038875;28;20045;-72
2022/11/28 11:31:18;;;;;;;1.20;0.93;;;;;;;5.48;78.15;100104.34;5047678;28;20495;-70
2022/11/28 11:33:50;;;;;;;2.72;2.05;;;;;;;5.41;78.54;100106.72;5036676;28;20072;-70
2022/11/28 11:36:31;;;;;;;1.98;1.85;;;;;;;5.43;78.97;100117.75;5036834;28;20052;-71
2022/11/28 11:39:17;;;;;;;3.22;1.92;;;;;;;5.45;78.78;100102.59;5036868;28;20091;-71
2022/11/28 11:41:47;;;;;;;3.45;3.15;;;;;;;5.38;79.30;100088.06;5036517;28;20050;-70
2022/11/28 11:44:33;;;;;;;1.63;1.52;;;;;;;5.51;78.85;100104.44;5036384;28;20053;-71
2022/11/28 11:47:06;;;;;;;1.13;1.05;;;;;;;5.51;79.05;100096.84;5035872;28;20172;-70
2022/11/28 11:49:36;;;;;;;2.10;1.92;;;;;;;5.52;78.62;100093.50;5039690;28;20048;-70
2022/11/28 11:52:14;;;;;;;4.53;2.38;;;;;;;5.58;78.96;100091.97;5052087;28;20063;-71
2022/11/28 11:54:56;;;;;;;2.90;2.45;;;;;;;5.61;79.39;100096.25;5049651;28;20049;-72
2022/11/28 11:57:31;;;;;;;1.27;1.17;;;;;;;5.61;79.25;100094.59;5049888;28;20092;-70
2022/11/28 12:00:07;;;;;;;1.02;0.95;;;;;;;5.40;78.82;100051.00;5044914;28;20143;-71
2022/11/28 12:02:49;;;;;;;1.20;1.05;;;;;;;5.53;79.05;100087.59;5036431;28;20045;-70
2022/11/28 12:05:20;;;;;;;0.60;0.60;;;;;;;5.57;79.21;100084.31;5036395;28;20107;-71